Time;durP1;ratioP1;P1;durP2;ratioP2;P2;SDS_P1;SDS_P2;PMS_P1;PMS_P2;Temp;Humidity;BMP_temperature;BMP_pressure;BME280_temperature;BME280_humidity;BME280_pressure;Samples;Min_cycle;Max_cycle;Signal;HPM_P1;HPM_P2
2022/09/06 00:00:31;;;;;;;7.05;1.40;;;16.70;99.90;;;;;;5041501;28;20225;-91
2022/09/06 00:03:03;;;;;;;6.07;1.30;;;16.70;99.90;;;;;;5034167;28;20197;-88
2022/09/06 00:05:34;;;;;;;8.27;1.63;;;16.70;99.90;;;;;;5032119;28;20207;-88
2022/09/06 00:08:07;;;;;;;5.65;1.33;;;16.70;99.90;;;;;;5034862;28;20201;-88
2022/09/06 00:10:43;;;;;;;6.00;1.42;;;16.60;99.90;;;;;;5036917;28;20752;-89
2022/09/06 00:13:15;;;;;;;5.95;1.30;;;16.60;99.90;;;;;;5030109;28;20209;-89
2022/09/06 00:15:46;;;;;;;8.57;1.38;;;16.60;99.90;;;;;;5034181;28;20205;-89
2022/09/06 00:18:18;;;;;;;8.35;1.40;;;16.70;99.90;;;;;;5033449;28;20219;-88
2022/09/06 00:20:51;;;;;;;4.80;1.05;;;16.60;99.90;;;;;;5034203;28;20780;-90
2022/09/06 00:23:22;;;;;;;5.65;1.13;;;16.50;99.90;;;;;;5042816;28;20203;-89
2022/09/06 00:26:03;;;;;;;9.55;1.60;;;16.60;99.90;;;;;;5053311;28;20207;-88
2022/09/06 00:28:34;;;;;;;7.80;1.55;;;16.60;99.90;;;;;;5047582;28;20206;-88
2022/09/06 00:31:12;;;;;;;7.25;1.65;;;16.60;99.90;;;;;;5050572;28;20193;-87
2022/09/06 00:33:43;;;;;;;8.73;1.40;;;16.60;99.90;;;;;;5033783;28;20211;-86
2022/09/06 00:36:15;;;;;;;4.65;1.08;;;16.60;99.90;;;;;;5041749;28;20562;-87
2022/09/06 00:38:46;;;;;;;6.80;1.30;;;16.70;99.90;;;;;;5034527;28;20273;-88
2022/09/06 00:41:21;;;;;;;5.72;1.35;;;16.70;99.90;;;;;;5030110;28;20205;-88
2022/09/06 00:43:56;;;;;;;8.90;1.30;;;16.70;99.90;;;;;;5031612;28;20220;-87
2022/09/06 00:46:29;;;;;;;5.88;0.93;;;16.80;99.90;;;;;;5043970;28;20192;-89
2022/09/06 00:49:03;;;;;;;3.28;1.27;;;16.70;99.90;;;;;;5034694;28;20229;-88
2022/09/06 00:51:35;;;;;;;3.50;0.82;;;16.70;99.90;;;;;;5033028;28;20300;-87
2022/09/06 00:54:07;;;;;;;6.65;1.00;;;16.70;99.90;;;;;;5037213;28;20194;-89
2022/09/06 00:56:44;;;;;;;10.55;2.25;;;16.70;99.90;;;;;;5048655;28;20202;-89
2022/09/06 00:59:16;;;;;;;6.80;1.45;;;16.60;99.90;;;;;;5048629;28;20243;-84
2022/09/06 01:01:47;;;;;;;3.80;0.85;;;16.60;99.90;;;;;;5049237;28;20197;-84
2022/09/06 01:04:21;;;;;;;3.55;0.90;;;16.60;99.90;;;;;;5047139;28;20201;-86
2022/09/06 01:07:05;;;;;;;4.88;0.82;;;16.60;99.90;;;;;;5036698;28;20194;-86
2022/09/06 01:09:55;;;;;;;3.85;0.90;;;16.60;99.90;;;;;;5035091;28;20668;-88
2022/09/06 01:12:45;;;;;;;5.50;1.15;;;16.60;99.90;;;;;;5032516;28;20204;-88
2022/09/06 01:15:29;;;;;;;3.95;1.20;;;16.60;99.90;;;;;;5034015;28;20201;-90
2022/09/06 01:18:14;;;;;;;7.07;1.30;;;16.70;99.90;;;;;;5032520;28;20197;-92
2022/09/06 01:21:23;;;;;;;3.10;0.95;;;16.70;99.90;;;;;;5030828;28;20229;-88
2022/09/06 01:24:29;;;;;;;5.80;0.85;;;16.70;99.90;;;;;;5036775;28;20561;-94
2022/09/06 01:27:34;;;;;;;4.50;0.80;;;16.90;99.90;;;;;;5030848;28;20201;-88
2022/09/06 01:30:07;;;;;;;3.13;1.00;;;17.00;99.90;;;;;;5034152;28;20196;-89
2022/09/06 01:32:49;;;;;;;4.28;0.90;;;17.10;99.90;;;;;;5030789;28;20201;-90
2022/09/06 01:35:30;;;;;;;7.57;1.08;;;17.10;99.90;;;;;;5029622;28;20224;-89
2022/09/06 01:38:02;;;;;;;3.67;0.77;;;17.20;99.90;;;;;;5032648;28;20333;-88
2022/09/06 01:40:35;;;;;;;4.43;0.80;;;17.40;99.90;;;;;;5031314;28;22202;-88
2022/09/06 01:43:14;;;;;;;2.72;0.88;;;17.40;99.90;;;;;;5032877;28;20251;-89
2022/09/06 01:45:58;;;;;;;3.40;0.70;;;17.50;99.90;;;;;;5030783;28;20197;-88
2022/09/06 01:48:40;;;;;;;5.97;0.85;;;17.60;99.90;;;;;;5030317;28;20224;-88
2022/09/06 01:51:24;;;;;;;0.90;0.70;;;17.60;99.90;;;;;;5033046;28;20207;-89
2022/09/06 01:54:07;;;;;;;3.47;0.75;;;17.80;99.90;;;;;;5032612;28;20212;-90
2022/09/06 01:56:47;;;;;;;1.65;0.73;;;18.00;99.90;;;;;;5041888;28;20193;-96
2022/09/06 02:00:02;;;;;;;2.45;0.57;;;18.20;99.90;;;;;;5054661;28;20209;-95
2022/09/06 02:02:47;;;;;;;3.67;1.00;;;18.30;99.90;;;;;;5050206;28;20197;-96
2022/09/06 02:05:26;;;;;;;2.22;0.63;;;18.40;99.90;;;;;;5047694;28;20216;-93
2022/09/06 02:08:03;;;;;;;2.85;0.88;;;18.40;99.90;;;;;;5040622;28;20207;-93
2022/09/06 02:10:40;;;;;;;4.38;0.85;;;18.30;99.90;;;;;;5042303;28;20227;-92
2022/09/06 02:13:14;;;;;;;3.35;0.75;;;18.40;99.90;;;;;;5046858;28;20219;-94
2022/09/06 02:15:58;;;;;;;3.10;0.90;;;18.40;99.90;;;;;;5035839;28;20206;-95
2022/09/06 02:21:24;;;;;;;4.18;0.88;;;18.70;99.90;;;;;;5033544;28;20237;-90
2022/09/06 02:23:57;;;;;;;7.45;1.02;;;18.90;99.90;;;;;;5033702;28;20200;-89
2022/09/06 02:26:38;;;;;;;4.28;0.80;;;18.90;99.90;;;;;;5033694;28;20207;-91
2022/09/06 02:29:12;;;;;;;1.42;0.60;;;18.90;99.90;;;;;;5037386;28;20208;-92
2022/09/06 02:31:52;;;;;;;2.88;0.57;;;18.80;99.90;;;;;;5037237;28;20197;-93
2022/09/06 02:34:24;;;;;;;2.75;0.82;;;18.80;99.90;;;;;;5041971;28;20215;-94
2022/09/06 02:36:56;;;;;;;2.20;0.68;;;18.80;99.90;;;;;;5038774;28;20200;-92
2022/09/06 02:39:27;;;;;;;1.80;0.60;;;18.90;99.90;;;;;;5040144;28;20201;-91
2022/09/06 02:41:59;;;;;;;4.03;0.70;;;18.90;99.90;;;;;;5042677;28;20208;-94
2022/09/06 02:44:31;;;;;;;2.85;0.55;;;18.80;99.90;;;;;;5047639;28;20201;-93
2022/09/06 02:47:08;;;;;;;2.75;0.63;;;18.70;99.90;;;;;;5051708;28;20224;-90
2022/09/06 02:49:40;;;;;;;1.88;0.70;;;18.60;99.90;;;;;;5048670;28;20670;-92
2022/09/06 02:52:11;;;;;;;3.90;0.70;;;18.50;99.90;;;;;;5041766;28;20204;-93
2022/09/06 02:54:43;;;;;;;5.15;0.80;;;18.60;99.90;;;;;;5050981;28;20193;-89
2022/09/06 02:57:17;;;;;;;3.65;0.80;;;18.50;99.90;;;;;;5039587;28;20194;-91
2022/09/06 02:59:48;;;;;;;2.55;0.90;;;18.60;99.90;;;;;;5037898;28;20231;-89
2022/09/06 03:02:25;;;;;;;2.08;0.60;;;18.60;99.90;;;;;;5036408;28;20726;-88
2022/09/06 03:04:57;;;;;;;3.00;0.77;;;18.60;99.90;;;;;;5037179;28;20197;-89
2022/09/06 03:07:31;;;;;;;2.40;0.65;;;18.80;99.90;;;;;;5041035;28;20192;-91
2022/09/06 03:10:04;;;;;;;1.48;0.77;;;18.90;99.90;;;;;;5032123;28;20196;-91
2022/09/06 03:12:35;;;;;;;3.20;0.80;;;19.10;99.90;;;;;;5030208;28;20260;-90
2022/09/06 03:15:07;;;;;;;3.38;0.65;;;19.30;99.90;;;;;;5032084;28;20225;-88
2022/09/06 03:17:40;;;;;;;2.17;0.63;;;19.30;99.90;;;;;;5034001;28;20200;-90
2022/09/06 03:20:16;;;;;;;5.20;0.65;;;19.40;99.90;;;;;;5033433;28;20231;-89
2022/09/06 03:22:49;;;;;;;3.47;1.00;;;19.50;99.90;;;;;;5034691;28;20227;-91
2022/09/06 03:25:22;;;;;;;3.55;0.90;;;19.50;99.90;;;;;;5031060;28;20194;-90
2022/09/06 03:27:53;;;;;;;2.20;0.73;;;19.50;99.90;;;;;;5036050;28;20274;-90
2022/09/06 03:30:27;;;;;;;2.58;0.65;;;19.50;99.90;;;;;;5032908;28;20205;-91
2022/09/06 03:33:01;;;;;;;2.33;0.60;;;19.50;99.90;;;;;;5037749;28;20899;-93
2022/09/06 03:35:34;;;;;;;3.95;0.82;;;19.50;99.90;;;;;;5037169;28;20875;-94
2022/09/06 03:38:07;;;;;;;2.85;0.60;;;19.60;99.90;;;;;;5036877;28;20204;-92
2022/09/06 03:40:39;;;;;;;3.03;0.50;;;19.60;99.90;;;;;;5035994;28;20270;-92
2022/09/06 03:43:11;;;;;;;1.67;0.57;;;19.80;99.90;;;;;;5041022;28;20250;-92
2022/09/06 03:45:41;;;;;;;1.35;0.43;;;19.80;99.90;;;;;;5037693;28;20189;-92
2022/09/06 03:48:14;;;;;;;2.38;0.50;;;19.80;99.90;;;;;;5038320;28;20234;-91
2022/09/06 03:50:47;;;;;;;1.83;0.55;;;19.80;99.90;;;;;;5039588;28;20236;-91
2022/09/06 03:53:19;;;;;;;2.72;0.70;;;19.90;99.90;;;;;;5055606;28;20270;-91
2022/09/06 03:55:51;;;;;;;2.88;0.75;;;19.80;99.90;;;;;;5058781;28;20188;-87
2022/09/06 03:58:24;;;;;;;1.90;0.68;;;19.80;99.90;;;;;;5055653;28;20194;-90
2022/09/06 04:01:10;;;;;;;2.03;0.45;;;19.70;99.90;;;;;;5048194;28;20220;-90
2022/09/06 04:03:44;;;;;;;1.15;0.45;;;19.60;99.90;;;;;;5037328;28;20201;-91
2022/09/06 04:06:16;;;;;;;1.88;0.45;;;19.60;99.90;;;;;;5033616;28;20200;-89
2022/09/06 04:08:49;;;;;;;2.50;0.50;;;19.60;99.90;;;;;;5033728;28;20242;-88
2022/09/06 04:11:21;;;;;;;1.02;0.47;;;19.40;99.90;;;;;;5036417;28;20189;-89
2022/09/06 04:13:53;;;;;;;2.55;0.60;;;19.40;99.90;;;;;;5042269;28;20284;-90
2022/09/06 04:16:26;;;;;;;3.22;0.70;;;19.30;99.90;;;;;;5040417;28;20291;-88
2022/09/06 04:19:03;;;;;;;1.55;0.50;;;19.40;99.90;;;;;;5038217;28;20196;-88
2022/09/06 04:21:33;;;;;;;2.53;0.50;;;19.30;99.90;;;;;;5033528;28;20223;-89
2022/09/06 04:24:07;;;;;;;5.22;0.70;;;19.30;99.90;;;;;;5035609;28;20238;-87
2022/09/06 04:26:41;;;;;;;3.33;0.65;;;19.20;99.90;;;;;;5031987;28;20244;-88
2022/09/06 04:29:12;;;;;;;3.33;0.73;;;19.10;99.90;;;;;;5031017;28;20192;-88
2022/09/06 04:31:42;;;;;;;2.45;0.50;;;19.00;99.90;;;;;;5033577;28;20205;-86
2022/09/06 04:34:18;;;;;;;2.75;0.75;;;19.00;99.90;;;;;;5034360;28;20201;-88
2022/09/06 04:36:50;;;;;;;1.15;0.45;;;18.80;99.90;;;;;;5031773;28;20189;-88
2022/09/06 04:39:21;;;;;;;1.55;0.50;;;18.80;99.90;;;;;;5032113;28;20200;-89
2022/09/06 04:41:52;;;;;;;1.88;0.47;;;18.80;99.90;;;;;;5032713;28;20225;-88
2022/09/06 04:44:23;;;;;;;3.25;0.68;;;18.70;99.90;;;;;;5041451;28;20200;-89
2022/09/06 04:47:04;;;;;;;1.63;0.60;;;18.80;99.90;;;;;;5039854;28;20208;-88
2022/09/06 04:49:40;;;;;;;1.52;0.43;;;18.70;99.90;;;;;;5035811;28;20721;-90
2022/09/06 04:52:13;;;;;;;2.47;0.57;;;18.50;99.90;;;;;;5035049;28;20210;-88
2022/09/06 04:54:46;;;;;;;1.33;0.57;;;18.40;99.90;;;;;;5034619;28;20284;-88
2022/09/06 04:57:18;;;;;;;3.53;0.50;;;18.20;99.90;;;;;;5043199;28;20189;-92
2022/09/06 04:59:50;;;;;;;4.88;0.70;;;18.20;99.90;;;;;;5050422;28;20217;-91
2022/09/06 05:02:22;;;;;;;1.52;0.70;;;18.30;99.90;;;;;;5043076;28;20589;-95
2022/09/06 05:05:11;;;;;;;2.50;0.70;;;18.30;99.90;;;;;;5038838;28;20219;-95
2022/09/06 05:07:44;;;;;;;1.48;0.50;;;18.30;99.90;;;;;;5038002;28;20190;-92
2022/09/06 05:10:17;;;;;;;3.28;0.80;;;18.40;99.90;;;;;;5033696;28;20197;-92
2022/09/06 05:12:54;;;;;;;2.08;0.70;;;18.30;99.90;;;;;;5030551;28;20265;-91
2022/09/06 05:15:27;;;;;;;1.38;0.68;;;18.40;99.90;;;;;;5032948;28;20197;-92
2022/09/06 05:18:06;;;;;;;2.72;0.57;;;18.40;99.90;;;;;;5035003;28;20193;-89
2022/09/06 05:20:41;;;;;;;3.13;0.50;;;18.50;99.90;;;;;;5035334;28;20656;-92
2022/09/06 05:23:17;;;;;;;2.60;0.70;;;18.50;99.90;;;;;;5035039;28;20185;-91
2022/09/06 05:25:51;;;;;;;1.30;0.50;;;18.50;99.90;;;;;;5036108;28;20300;-90
2022/09/06 05:28:23;;;;;;;2.22;0.40;;;18.50;99.90;;;;;;5034598;28;20216;-91
2022/09/06 05:30:54;;;;;;;1.95;0.55;;;18.30;99.90;;;;;;5038486;28;20212;-93
2022/09/06 05:33:25;;;;;;;1.13;0.50;;;18.20;99.90;;;;;;5036644;28;20220;-91
2022/09/06 05:36:12;;;;;;;5.05;0.80;;;18.20;99.90;;;;;;5037895;28;20588;-95
2022/09/06 05:38:43;;;;;;;1.65;0.52;;;18.30;99.90;;;;;;5039776;28;20597;-93
2022/09/06 05:41:19;;;;;;;1.05;0.30;;;18.40;99.90;;;;;;5032772;28;20244;-92
2022/09/06 05:43:52;;;;;;;3.35;0.70;;;18.60;99.90;;;;;;5036277;28;20201;-86
2022/09/06 05:46:29;;;;;;;3.05;0.43;;;18.70;99.90;;;;;;5032242;28;20201;-91
2022/09/06 05:49:06;;;;;;;1.30;0.40;;;18.80;99.90;;;;;;5032332;28;20228;-93
2022/09/06 05:51:40;;;;;;;1.20;0.43;;;18.90;99.90;;;;;;5042779;28;20300;-94
2022/09/06 05:54:14;;;;;;;2.03;0.60;;;18.80;99.90;;;;;;5041662;28;20198;-94
2022/09/06 05:56:58;;;;;;;3.50;0.60;;;18.80;99.90;;;;;;5037880;28;20203;-93
2022/09/06 05:59:29;;;;;;;1.48;0.50;;;18.80;99.90;;;;;;5038596;28;20211;-90
2022/09/06 06:02:02;;;;;;;2.35;0.85;;;18.70;99.90;;;;;;5031844;28;20235;-90
2022/09/06 06:04:33;;;;;;;2.40;1.00;;;18.60;99.90;;;;;;5034093;28;20205;-91
2022/09/06 06:07:05;;;;;;;4.28;2.05;;;18.60;99.90;;;;;;5030717;28;20209;-87
2022/09/06 06:09:36;;;;;;;4.32;2.78;;;18.50;99.90;;;;;;5031860;28;20209;-90
2022/09/06 06:12:08;;;;;;;5.25;2.40;;;18.40;99.90;;;;;;5032593;28;20283;-87
2022/09/06 06:14:42;;;;;;;4.50;2.75;;;18.40;99.90;;;;;;5033304;28;20220;-90
2022/09/06 06:17:14;;;;;;;3.50;1.77;;;18.50;99.90;;;;;;5031816;28;20663;-90
2022/09/06 06:19:47;;;;;;;3.15;2.13;;;18.50;99.90;;;;;;5031685;28;20196;-90
2022/09/06 06:22:23;;;;;;;2.45;1.20;;;18.50;99.90;;;;;;5031786;28;20547;-87
2022/09/06 06:24:53;;;;;;;1.88;1.00;;;18.50;99.90;;;;;;5033554;28;20205;-88
2022/09/06 06:27:24;;;;;;;2.92;0.65;;;18.40;99.90;;;;;;5052923;28;20204;-88
2022/09/06 06:29:56;;;;;;;1.80;0.70;;;18.30;99.90;;;;;;5052133;28;20200;-86
2022/09/06 06:32:32;;;;;;;2.53;0.60;;;18.30;99.90;;;;;;5035574;28;20190;-89
2022/09/06 06:35:04;;;;;;;1.75;0.70;;;18.30;99.90;;;;;;5038603;28;20259;-89
2022/09/06 06:37:44;;;;;;;1.80;0.52;;;18.10;99.90;;;;;;5049736;28;20197;-89
2022/09/06 06:40:16;;;;;;;2.30;0.70;;;18.10;99.90;;;;;;5035227;28;20213;-88
2022/09/06 06:42:47;;;;;;;1.63;0.60;;;18.00;99.90;;;;;;5032507;28;20726;-91
2022/09/06 06:45:22;;;;;;;1.52;0.50;;;17.90;99.90;;;;;;5037768;28;20201;-88
2022/09/06 06:47:54;;;;;;;1.60;0.68;;;17.80;99.90;;;;;;5035354;28;20200;-87
2022/09/06 06:50:26;;;;;;;2.35;0.60;;;17.80;99.90;;;;;;5037804;28;20190;-86
2022/09/06 06:53:02;;;;;;;2.70;0.63;;;17.70;99.90;;;;;;5045046;28;20276;-89
2022/09/06 06:55:34;;;;;;;1.45;0.70;;;17.70;99.90;;;;;;5052494;28;20292;-87
2022/09/06 06:58:06;;;;;;;1.80;0.63;;;17.60;99.90;;;;;;5050634;28;20212;-88
2022/09/06 07:00:40;;;;;;;3.35;0.50;;;17.50;99.90;;;;;;5038489;28;20671;-90
2022/09/06 07:03:12;;;;;;;2.10;0.70;;;17.50;99.90;;;;;;5034449;28;20201;-89
2022/09/06 07:05:45;;;;;;;1.20;0.47;;;17.40;99.90;;;;;;5033312;28;20199;-89
2022/09/06 07:08:24;;;;;;;1.15;0.70;;;17.30;99.90;;;;;;5032632;28;20190;-87
2022/09/06 07:10:57;;;;;;;1.35;1.02;;;17.20;99.90;;;;;;5037363;28;20703;-87
2022/09/06 07:13:28;;;;;;;2.65;0.90;;;17.00;99.90;;;;;;5042622;28;20197;-89
2022/09/06 07:16:13;;;;;;;0.40;0.40;;;16.80;99.90;;;;;;5033983;28;20235;-87
2022/09/06 07:18:47;;;;;;;1.90;1.00;;;16.60;99.90;;;;;;5030275;28;20776;-85
2022/09/06 07:21:19;;;;;;;2.13;1.92;;;16.60;99.90;;;;;;5035333;28;20209;-90
2022/09/06 07:23:54;;;;;;;2.65;1.00;;;16.50;99.90;;;;;;5035119;28;20227;-88
2022/09/06 07:26:28;;;;;;;1.60;0.50;;;16.50;99.90;;;;;;5032211;28;20292;-89
2022/09/06 07:29:04;;;;;;;1.20;0.47;;;16.50;99.90;;;;;;5034593;28;20284;-91
2022/09/06 07:31:35;;;;;;;4.32;0.85;;;16.50;99.90;;;;;;5031683;28;20887;-89
2022/09/06 07:34:10;;;;;;;2.00;0.65;;;16.50;99.90;;;;;;5032768;28;20197;-88
2022/09/06 07:36:41;;;;;;;1.92;0.57;;;16.40;99.90;;;;;;5031184;28;22063;-85
2022/09/06 07:39:20;;;;;;;2.80;0.80;;;16.40;99.90;;;;;;5035672;28;20208;-87
2022/09/06 07:41:53;;;;;;;3.05;0.60;;;16.40;99.90;;;;;;5033296;28;20224;-85
2022/09/06 07:44:27;;;;;;;2.75;0.88;;;16.40;99.90;;;;;;5034305;28;20704;-86
2022/09/06 07:47:01;;;;;;;3.20;1.00;;;16.40;99.90;;;;;;5035271;28;20299;-87
2022/09/06 07:49:38;;;;;;;2.38;0.90;;;16.30;99.90;;;;;;5032319;28;20224;-88
2022/09/06 07:52:10;;;;;;;2.67;0.93;;;16.20;99.90;;;;;;5031906;28;20675;-87
2022/09/06 07:54:49;;;;;;;3.03;1.20;;;16.20;99.90;;;;;;5029209;28;20205;-86
2022/09/06 07:57:21;;;;;;;3.17;1.35;;;16.20;99.90;;;;;;5031531;28;20307;-86
2022/09/06 07:59:52;;;;;;;1.60;1.00;;;16.20;99.90;;;;;;5034634;28;20208;-86
2022/09/06 08:02:24;;;;;;;3.08;1.15;;;16.10;99.90;;;;;;5033243;28;20248;-88
2022/09/06 08:04:58;;;;;;;3.70;1.10;;;16.10;99.90;;;;;;5033106;28;20204;-87
2022/09/06 08:07:30;;;;;;;4.10;1.30;;;16.10;99.90;;;;;;5033154;28;20675;-87
2022/09/06 08:10:03;;;;;;;2.97;1.38;;;16.10;99.90;;;;;;5034551;28;20188;-85
2022/09/06 08:12:35;;;;;;;2.45;1.52;;;16.00;99.90;;;;;;5032874;28;20277;-86
2022/09/06 08:15:08;;;;;;;3.95;1.60;;;16.10;99.90;;;;;;5033873;28;20212;-88
2022/09/06 08:17:39;;;;;;;4.95;1.38;;;16.00;99.90;;;;;;5034795;28;20197;-89
2022/09/06 08:20:13;;;;;;;5.32;1.30;;;16.00;99.90;;;;;;5033788;28;20588;-90
2022/09/06 08:22:48;;;;;;;2.38;0.77;;;16.10;99.90;;;;;;5032381;28;20228;-88
2022/09/06 08:25:24;;;;;;;3.20;1.00;;;16.00;99.90;;;;;;5031757;28;20280;-87
2022/09/06 08:27:58;;;;;;;2.70;1.10;;;16.00;99.90;;;;;;5034539;28;20193;-90
2022/09/06 08:30:30;;;;;;;2.45;1.23;;;16.00;99.90;;;;;;5032651;28;20197;-86
2022/09/06 08:33:02;;;;;;;3.55;1.35;;;16.10;99.90;;;;;;5033019;28;20304;-85
2022/09/06 08:35:36;;;;;;;2.08;1.20;;;16.10;99.90;;;;;;5035455;28;20211;-85
2022/09/06 08:38:11;;;;;;;3.08;1.23;;;16.10;99.90;;;;;;5030302;28;20287;-85
2022/09/06 08:40:55;;;;;;;2.08;1.10;;;16.00;99.90;;;;;;5031035;28;20200;-85
2022/09/06 08:43:29;;;;;;;4.35;1.30;;;16.00;99.90;;;;;;5032132;28;20227;-85
2022/09/06 08:46:02;;;;;;;4.88;1.42;;;16.00;99.90;;;;;;5030966;28;20248;-86
2022/09/06 08:48:35;;;;;;;2.63;1.77;;;16.00;99.90;;;;;;5034141;28;20229;-90
2022/09/06 08:51:43;;;;;;;3.17;1.77;;;16.00;99.90;;;;;;5036584;28;20219;-88
2022/09/06 08:54:26;;;;;;;4.15;1.30;;;16.00;99.90;;;;;;5060067;28;20240;-92
2022/09/06 08:57:34;;;;;;;2.72;1.50;;;16.00;99.90;;;;;;5037418;28;20196;-94
2022/09/06 09:00:10;;;;;;;4.43;1.70;;;16.00;99.90;;;;;;5029684;28;20208;-90
2022/09/06 09:02:50;;;;;;;3.88;1.40;;;16.00;99.90;;;;;;5027323;28;20716;-89
2022/09/06 09:05:27;;;;;;;4.43;1.35;;;16.00;99.90;;;;;;5034252;28;20907;-94
2022/09/06 09:08:06;;;;;;;4.75;1.58;;;15.90;99.90;;;;;;5033664;28;20201;-86
2022/09/06 09:10:43;;;;;;;3.35;1.40;;;15.90;99.90;;;;;;5032869;28;20189;-91
2022/09/06 09:13:27;;;;;;;2.30;1.20;;;16.00;99.90;;;;;;5033002;28;20192;-84
2022/09/06 09:15:58;;;;;;;3.15;1.00;;;15.90;99.90;;;;;;5029373;28;20215;-91
2022/09/06 09:18:33;;;;;;;1.70;1.05;;;15.90;99.90;;;;;;5038872;28;20207;-89
2022/09/06 09:21:04;;;;;;;3.40;1.15;;;15.90;99.90;;;;;;5032616;28;22304;-88
2022/09/06 09:23:36;;;;;;;2.13;0.93;;;15.90;99.90;;;;;;5030194;28;20229;-88
2022/09/06 09:26:12;;;;;;;2.17;0.98;;;15.90;99.90;;;;;;5030999;28;20205;-83
2022/09/06 09:29:05;;;;;;;2.17;1.13;;;15.80;99.90;;;;;;5030169;28;20219;-86
2022/09/06 09:31:41;;;;;;;2.78;1.10;;;15.80;99.90;;;;;;5032947;28;20193;-88
2022/09/06 09:34:18;;;;;;;2.35;1.00;;;15.80;99.90;;;;;;5037212;28;20223;-88
2022/09/06 09:36:49;;;;;;;2.28;1.30;;;15.80;99.90;;;;;;5032704;28;22754;-87
2022/09/06 09:39:20;;;;;;;3.47;1.27;;;15.80;99.90;;;;;;5035820;28;20196;-83
2022/09/06 09:41:53;;;;;;;4.03;1.50;;;15.80;99.90;;;;;;5031930;28;20209;-89
2022/09/06 09:44:28;;;;;;;2.83;1.40;;;15.80;99.90;;;;;;5035512;28;20224;-86
2022/09/06 09:46:59;;;;;;;4.30;1.55;;;15.80;99.90;;;;;;5042307;28;20192;-84
2022/09/06 09:49:34;;;;;;;2.38;1.20;;;15.80;99.90;;;;;;5050244;28;20241;-85
2022/09/06 09:52:15;;;;;;;3.72;1.40;;;15.70;99.90;;;;;;5035063;28;20217;-87
2022/09/06 09:54:52;;;;;;;2.60;1.50;;;15.70;99.90;;;;;;5032306;28;20202;-87
2022/09/06 09:57:23;;;;;;;1.80;1.20;;;15.70;99.90;;;;;;5030099;28;20296;-87
2022/09/06 09:59:59;;;;;;;1.85;1.10;;;15.70;99.90;;;;;;5031099;28;20186;-88
2022/09/06 10:02:32;;;;;;;4.45;1.40;;;15.70;99.90;;;;;;5032112;28;20223;-87
2022/09/06 10:05:08;;;;;;;3.75;1.60;;;15.70;99.90;;;;;;5028534;28;20201;-89
2022/09/06 10:07:47;;;;;;;2.75;1.15;;;15.70;99.90;;;;;;5033550;28;20197;-90
2022/09/06 10:10:24;;;;;;;2.50;1.27;;;15.70;99.90;;;;;;5031363;28;20287;-86
2022/09/06 10:13:10;;;;;;;4.40;1.75;;;15.60;99.90;;;;;;5031580;28;20212;-88
2022/09/06 10:15:44;;;;;;;3.80;1.85;;;15.60;99.90;;;;;;5029941;28;20201;-91
2022/09/06 10:18:23;;;;;;;4.32;1.45;;;15.70;99.90;;;;;;5036944;28;20262;-87
2022/09/06 10:20:57;;;;;;;2.80;1.67;;;15.60;99.90;;;;;;5031808;28;20670;-87
2022/09/06 10:23:38;;;;;;;4.65;1.40;;;15.60;99.90;;;;;;5029645;28;20220;-88
2022/09/06 10:26:13;;;;;;;2.72;1.30;;;15.60;99.90;;;;;;5025466;28;20228;-87
2022/09/06 10:28:44;;;;;;;4.00;1.52;;;15.60;99.90;;;;;;5026659;28;20231;-85
2022/09/06 10:31:44;;;;;;;2.72;1.50;;;15.50;99.90;;;;;;5036768;28;20197;-88
2022/09/06 10:34:52;;;;;;;2.90;1.30;;;15.60;99.90;;;;;;5025049;28;20196;-87
2022/09/06 10:37:44;;;;;;;3.50;1.40;;;15.50;99.90;;;;;;5022978;28;20303;-87
2022/09/06 10:40:27;;;;;;;3.03;1.90;;;15.50;99.90;;;;;;5032387;28;20209;-88
2022/09/06 10:43:01;;;;;;;2.15;1.50;;;15.50;99.90;;;;;;5035142;28;20232;-89
2022/09/06 10:45:48;;;;;;;2.88;1.63;;;15.50;99.90;;;;;;5034943;28;20228;-88
2022/09/06 10:48:25;;;;;;;3.13;1.70;;;15.50;99.90;;;;;;5033301;28;20239;-90
2022/09/06 10:50:59;;;;;;;4.15;2.03;;;15.40;99.90;;;;;;5033924;28;20220;-88
2022/09/06 10:53:42;;;;;;;6.10;2.90;;;15.40;99.90;;;;;;5032180;28;20201;-87
2022/09/06 10:56:18;;;;;;;4.72;2.60;;;15.40;99.90;;;;;;5032476;28;20203;-87
2022/09/06 10:58:56;;;;;;;4.20;2.38;;;15.40;99.90;;;;;;5031872;28;20682;-88
2022/09/06 11:01:32;;;;;;;4.65;2.50;;;15.40;99.90;;;;;;5034217;28;20212;-89
2022/09/06 11:04:08;;;;;;;6.38;3.45;;;15.40;99.90;;;;;;5033852;28;20228;-88
2022/09/06 11:06:48;;;;;;;7.05;5.50;;;15.40;99.90;;;;;;5038396;28;20295;-90
2022/09/06 11:09:34;;;;;;;8.18;5.03;;;15.40;99.90;;;;;;5034936;28;20209;-89
2022/09/06 11:12:14;;;;;;;6.65;5.00;;;15.40;99.90;;;;;;5031173;28;20198;-90
2022/09/06 11:14:46;;;;;;;8.27;4.90;;;15.40;99.90;;;;;;5032986;28;20566;-89
2022/09/06 11:17:28;;;;;;;6.80;4.45;;;15.50;99.90;;;;;;5037436;28;20219;-83
2022/09/06 11:20:06;;;;;;;5.25;3.42;;;15.50;99.90;;;;;;5036891;28;20303;-89
2022/09/06 11:23:13;;;;;;;4.00;2.42;;;15.40;99.90;;;;;;5034283;28;20244;-87
2022/09/06 11:26:07;;;;;;;2.78;2.10;;;15.30;99.90;;;;;;5029798;28;20223;-87
2022/09/06 11:28:44;;;;;;;5.45;2.00;;;15.20;99.90;;;;;;5035297;28;20200;-88
2022/09/06 11:31:26;;;;;;;3.60;1.70;;;15.20;99.90;;;;;;5033799;28;20199;-87
2022/09/06 11:34:10;;;;;;;4.43;2.05;;;15.10;99.90;;;;;;5031906;28;20196;-87
2022/09/06 11:36:47;;;;;;;6.63;1.90;;;15.10;99.90;;;;;;5031340;28;20219;-86
2022/09/06 11:39:28;;;;;;;4.68;2.00;;;15.00;99.90;;;;;;5033158;28;20205;-84
2022/09/06 11:42:00;;;;;;;5.15;2.20;;;15.10;99.90;;;;;;5032829;28;20231;-84
2022/09/06 11:45:20;;;;;;;4.00;1.80;;;15.10;99.90;;;;;;5035744;28;20212;-88
2022/09/06 11:47:55;;;;;;;5.45;2.05;;;15.10;99.90;;;;;;4982407;28;20194;-89
2022/09/06 11:51:05;;;;;;;4.30;2.20;;;15.20;99.90;;;;;;5031164;28;20207;-88
2022/09/06 11:53:57;;;;;;;4.00;1.85;;;15.20;99.90;;;;;;5033995;28;20250;-86
2022/09/06 11:56:33;;;;;;;3.20;1.73;;;15.10;99.90;;;;;;5032215;28;20224;-87
2022/09/06 11:59:20;;;;;;;3.17;1.92;;;15.10;99.90;;;;;;5036042;28;20196;-85
2022/09/06 12:02:05;;;;;;;2.75;1.63;;;15.10;99.90;;;;;;5032339;28;20204;-84
2022/09/06 12:05:11;;;;;;;3.40;1.90;;;15.10;99.90;;;;;;5029470;28;20404;-86
2022/09/06 12:08:23;;;;;;;3.55;1.52;;;15.10;99.90;;;;;;5033143;28;20216;-84
2022/09/06 12:11:21;;;;;;;2.78;1.90;;;15.20;99.90;;;;;;5054174;28;20193;-85
2022/09/06 12:13:58;;;;;;;3.22;1.88;;;15.10;99.90;;;;;;5021502;28;20201;-85
2022/09/06 12:17:10;;;;;;;3.20;1.80;;;15.10;99.90;;;;;;5031518;28;20212;-85
2022/09/06 12:19:48;;;;;;;2.65;1.73;;;15.10;99.90;;;;;;5034494;28;20208;-85
2022/09/06 12:23:03;;;;;;;3.65;1.80;;;15.10;99.90;;;;;;5034758;28;20247;-86
2022/09/06 12:25:54;;;;;;;3.58;1.67;;;15.20;99.90;;;;;;5041534;28;20181;-85
2022/09/06 12:28:34;;;;;;;2.50;1.60;;;15.20;99.90;;;;;;5042504;28;20722;-85
2022/09/06 12:31:56;;;;;;;2.58;1.63;;;15.20;99.90;;;;;;5047646;28;20201;-85
2022/09/06 12:34:37;;;;;;;3.92;1.80;;;15.20;99.90;;;;;;5058197;28;20255;-85
2022/09/06 12:37:15;;;;;;;5.13;1.67;;;15.20;99.90;;;;;;5043287;28;20211;-86
2022/09/06 12:40:02;;;;;;;3.30;1.70;;;15.20;99.90;;;;;;5040605;28;20201;-86
2022/09/06 12:42:43;;;;;;;4.78;2.03;;;15.10;99.90;;;;;;5042383;28;20225;-85
2022/09/06 12:45:15;;;;;;;3.25;1.83;;;15.20;99.90;;;;;;5041821;28;20221;-85
2022/09/06 12:47:54;;;;;;;3.63;1.80;;;15.20;99.90;;;;;;5040686;28;20289;-86
2022/09/06 12:50:30;;;;;;;2.60;1.77;;;15.10;99.90;;;;;;5041842;28;20264;-86
2022/09/06 12:53:04;;;;;;;3.47;1.92;;;15.10;99.90;;;;;;5037148;28;20300;-87
2022/09/06 12:55:42;;;;;;;5.22;2.10;;;15.10;99.90;;;;;;5040627;28;20177;-87
2022/09/06 12:58:19;;;;;;;2.97;2.08;;;15.10;99.90;;;;;;5044369;28;20199;-85
2022/09/06 13:00:57;;;;;;;2.55;1.70;;;15.10;99.90;;;;;;5041341;28;20203;-87
2022/09/06 13:03:31;;;;;;;3.40;1.60;;;15.00;99.90;;;;;;5045228;28;20234;-86
2022/09/06 13:06:08;;;;;;;4.18;2.10;;;15.00;99.90;;;;;;5039167;28;20204;-87
2022/09/06 13:08:44;;;;;;;4.45;1.90;;;15.00;99.90;;;;;;5041208;28;21243;-86
2022/09/06 13:11:18;;;;;;;4.03;2.20;;;14.90;99.90;;;;;;5042322;28;20200;-85
2022/09/06 13:13:52;;;;;;;3.22;1.90;;;14.90;99.90;;;;;;5048144;28;20193;-86
2022/09/06 13:16:25;;;;;;;3.15;1.80;;;14.80;99.90;;;;;;5040240;28;20205;-86
2022/09/06 13:19:12;;;;;;;3.85;1.88;;;14.80;99.90;;;;;;5044457;28;20241;-85
2022/09/06 13:21:48;;;;;;;3.53;2.10;;;14.80;99.90;;;;;;5036275;28;20198;-86
2022/09/06 13:24:28;;;;;;;3.50;2.20;;;14.80;99.90;;;;;;5036403;28;20900;-85
2022/09/06 13:27:02;;;;;;;3.75;2.35;;;14.80;99.90;;;;;;5037261;28;20219;-87
2022/09/06 13:29:37;;;;;;;3.13;2.10;;;14.70;99.90;;;;;;5038317;28;20196;-87
2022/09/06 13:32:17;;;;;;;3.40;2.05;;;14.70;99.90;;;;;;5039038;28;20552;-85
2022/09/06 13:35:00;;;;;;;3.08;2.17;;;14.70;99.90;;;;;;5039557;28;20204;-85
2022/09/06 13:37:39;;;;;;;3.90;2.30;;;14.70;99.90;;;;;;5038503;28;20196;-86
2022/09/06 13:40:42;;;;;;;4.57;2.22;;;14.70;99.90;;;;;;5040500;28;20198;-86
2022/09/06 13:43:14;;;;;;;3.40;2.05;;;14.60;99.90;;;;;;5040922;28;20231;-86